Time;durP1;ratioP1;P1;durP2;ratioP2;P2;SDS_P1;SDS_P2;PMS_P1;PMS_P2;Temp;Humidity;BMP_temperature;BMP_pressure;BME280_temperature;BME280_humidity;BME280_pressure;Samples;Min_cycle;Max_cycle;Signal;HPM_P1;HPM_P2
2021/06/03 00:01:39;;;;;;;;;;;;;;;14.85;57.59;100310.75;1780656;77;20264;-54
2021/06/03 00:04:25;;;;;;;;;;;;;;;14.80;57.57;100316.86;1760561;81;20286;-54
2021/06/03 00:06:59;;;;;;;;;;;;;;;14.84;57.66;100309.09;1770352;77;20571;-55
2021/06/03 00:09:33;;;;;;;;;;;;;;;14.82;57.79;100330.20;1815509;77;20239;-54
2021/06/03 00:12:08;;;;;;;;;;;;;;;14.83;57.68;100308.25;1797450;77;20226;-54
2021/06/03 00:14:41;;;;;;;;;;;;;;;14.83;57.74;100307.42;1793517;77;20151;-54
2021/06/03 00:17:15;;;;;;;;;;;;;;;14.81;57.82;100302.30;1771581;77;20232;-54
2021/06/03 00:20:05;;;;;;;;;;;;;;;14.76;57.79;100315.80;1743923;81;23361;-54
2021/06/03 00:22:40;;;;;;;;;;;;;;;14.80;57.44;100298.01;1849324;77;20343;-54
2021/06/03 00:25:14;;;;;;;;;;;;;;;14.80;57.53;100301.95;1804236;77;20183;-54
2021/06/03 00:27:49;;;;;;;;;;;;;;;14.80;57.73;100302.42;1788944;77;20147;-54
2021/06/03 00:30:34;;;;;;;;;;;;;;;14.75;57.66;100310.19;1733222;80;20167;-55
2021/06/03 00:33:09;;;;;;;;;;;;;;;14.78;57.58;100292.05;1837591;77;20145;-54
2021/06/03 00:35:44;;;;;;;;;;;;;;;14.77;57.51;100300.89;1777952;77;20122;-54
2021/06/03 00:38:30;;;;;;;;;;;;;;;14.72;57.01;100297.84;1746844;81;20144;-54
2021/06/03 00:41:05;;;;;;;;;;;;;;;14.75;56.91;100292.30;1807390;77;20230;-54
2021/06/03 00:43:40;;;;;;;;;;;;;;;14.74;57.10;100303.28;1829195;77;20496;-54
2021/06/03 00:46:15;;;;;;;;;;;;;;;14.74;57.35;100293.27;1801922;77;20263;-54
2021/06/03 00:49:00;;;;;;;;;;;;;;;14.70;57.40;100290.58;1772059;79;20140;-55
2021/06/03 00:51:35;;;;;;;;;;;;;;;14.72;57.32;100297.36;1820359;77;20501;-54
2021/06/03 00:54:10;;;;;;;;;;;;;;;14.71;57.35;100285.68;1811577;77;20403;-55
2021/06/03 00:56:55;;;;;;;;;;;;;;;14.65;57.44;100294.05;1754291;80;20549;-54
2021/06/03 00:59:30;;;;;;;;;;;;;;;14.70;57.45;100294.51;1805174;77;20394;-54
2021/06/03 01:02:23;;;;;;;;;;;;;;;14.69;57.39;100304.65;1813256;77;20272;-54
2021/06/03 01:05:28;;;;;;;;;;;;;;;14.68;57.50;100304.30;1798561;77;20453;-54
2021/06/03 01:08:24;;;;;;;;;;;;;;;14.66;57.56;100306.20;1826723;77;20232;-54
2021/06/03 01:11:32;;;;;;;;;;;;;;;14.62;57.53;100323.16;1760816;79;20126;-54
2021/06/03 01:14:16;;;;;;;;;;;;;;;14.65;57.41;100305.86;1801460;77;20230;-54
2021/06/03 01:16:52;;;;;;;;;;;;;;;14.64;57.53;100315.99;1774435;77;20189;-54
2021/06/03 01:19:41;;;;;;;;;;;;;;;14.57;57.58;100306.48;1759291;81;20138;-55
2021/06/03 01:22:19;;;;;;;;;;;;;;;14.60;57.49;100300.98;1799652;77;20447;-54
2021/06/03 01:24:55;;;;;;;;;;;;;;;14.58;57.37;100291.09;1786811;77;20135;-55
2021/06/03 01:27:31;;;;;;;;;;;;;;;14.57;57.35;100303.86;1793287;77;20230;-54
2021/06/03 01:30:25;;;;;;;;;;;;;;;14.50;57.41;100298.75;1750951;81;20157;-54
2021/06/03 01:33:04;;;;;;;;;;;;;;;14.53;57.25;100293.27;1796058;77;20140;-54
2021/06/03 01:35:41;;;;;;;;;;;;;;;14.52;57.15;100310.44;1829481;77;20354;-54
2021/06/03 01:38:18;;;;;;;;;;;;;;;14.51;57.12;100307.45;1824075;77;20374;-54
2021/06/03 01:41:05;;;;;;;;;;;;;;;14.47;57.00;100300.31;1780337;80;20171;-55
2021/06/03 01:43:42;;;;;;;;;;;;;;;14.49;57.07;100305.44;1804429;77;20134;-54
2021/06/03 01:46:16;;;;;;;;;;;;;;;14.49;57.13;100309.37;1823802;77;20244;-54
2021/06/03 01:48:50;;;;;;;;;;;;;;;14.49;57.08;100310.68;1774541;77;20276;-54
2021/06/03 01:51:25;;;;;;;;;;;;;;;14.47;57.11;100312.59;1824386;77;20461;-54
2021/06/03 01:53:58;;;;;;;;;;;;;;;14.46;57.18;100302.58;1814036;77;20256;-55
2021/06/03 01:56:35;;;;;;;;;;;;;;;14.46;57.28;100316.17;1820179;77;20116;-54
2021/06/03 01:59:22;;;;;;;;;;;;;;;14.39;57.17;100314.48;1760205;80;20161;-55
2021/06/03 02:01:56;;;;;;;;;;;;;;;14.40;56.96;100303.88;1784900;77;20165;-54
2021/06/03 02:04:32;;;;;;;;;;;;;;;14.40;56.82;100306.50;1795601;77;20615;-54
2021/06/03 02:07:17;;;;;;;;;;;;;;;14.35;56.80;100315.22;1776847;80;20143;-54
2021/06/03 02:09:53;;;;;;;;;;;;;;;14.38;56.63;100301.86;1798514;77;20119;-54
2021/06/03 02:12:28;;;;;;;;;;;;;;;14.37;56.67;100298.88;1778786;77;20364;-54
2021/06/03 02:15:14;;;;;;;;;;;;;;;14.31;56.75;100294.13;1732921;82;20207;-54
2021/06/03 02:17:52;;;;;;;;;;;;;;;14.34;56.64;100299.13;1788985;77;20151;-54
2021/06/03 02:20:32;;;;;;;;;;;;;;;14.33;56.75;100304.49;1824022;77;20143;-54
2021/06/03 02:23:07;;;;;;;;;;;;;;;14.30;56.77;100304.27;1794651;77;20518;-54
2021/06/03 02:25:41;;;;;;;;;;;;;;;14.30;56.77;100300.33;1836529;77;20252;-54
2021/06/03 02:28:29;;;;;;;;;;;;;;;14.25;56.70;100318.22;1773486;80;20135;-55
2021/06/03 02:31:03;;;;;;;;;;;;;;;14.28;56.74;100307.48;1808837;77;20255;-54
2021/06/03 02:33:38;;;;;;;;;;;;;;;14.28;56.66;100308.80;1810046;77;20272;-54
2021/06/03 02:36:24;;;;;;;;;;;;;;;14.23;56.59;100301.78;1747395;81;20291;-55
2021/06/03 02:38:59;;;;;;;;;;;;;;;14.27;56.48;100304.51;1822924;77;21088;-54
2021/06/03 02:41:33;;;;;;;;;;;;;;;14.24;56.41;100327.03;1804848;77;20274;-54
2021/06/03 02:44:09;;;;;;;;;;;;;;;14.24;56.32;100321.79;1829516;77;20150;-55
2021/06/03 02:46:55;;;;;;;;;;;;;;;14.20;56.37;100321.68;1784038;79;20163;-54
2021/06/03 02:49:29;;;;;;;;;;;;;;;14.24;56.21;100320.95;1781185;77;20495;-55
2021/06/03 02:52:07;;;;;;;;;;;;;;;14.23;56.33;100320.12;1796506;77;20150;-54
2021/06/03 02:54:42;;;;;;;;;;;;;;;14.23;56.27;100322.75;1844886;77;20167;-54
2021/06/03 02:57:17;;;;;;;;;;;;;;;14.22;56.35;100325.02;1802321;77;20272;-55
2021/06/03 03:00:09;;;;;;;;;;;;;;;14.17;56.31;100324.55;1739300;81;20516;-55
2021/06/03 03:02:44;;;;;;;;;;;;;;;14.20;56.29;100332.16;1802646;77;20235;-54
2021/06/03 03:05:19;;;;;;;;;;;;;;;14.19;56.12;100329.19;1809979;77;20113;-54
2021/06/03 03:08:05;;;;;;;;;;;;;;;14.16;55.91;100318.11;1774524;80;20150;-55
2021/06/03 03:10:42;;;;;;;;;;;;;;;14.19;55.99;100318.70;1802039;77;20253;-54
2021/06/03 03:13:17;;;;;;;;;;;;;;;14.18;56.05;100323.59;1788775;77;20244;-54
2021/06/03 03:16:04;;;;;;;;;;;;;;;14.15;56.08;100331.70;1752441;80;20200;-54
2021/06/03 03:18:38;;;;;;;;;;;;;;;14.19;56.13;100323.95;1778386;77;20222;-54
2021/06/03 03:21:12;;;;;;;;;;;;;;;14.20;56.05;100321.68;1813208;77;20115;-54
2021/06/03 03:23:47;;;;;;;;;;;;;;;14.21;56.11;100327.28;1776477;77;20229;-54
2021/06/03 03:26:33;;;;;;;;;;;;;;;14.16;56.08;100325.50;1740755;81;20122;-54
2021/06/03 03:29:06;;;;;;;;;;;;;;;14.21;55.80;100336.92;1822864;77;20721;-54
2021/06/03 03:31:40;;;;;;;;;;;;;;;14.20;55.47;100326.92;1828940;77;20496;-54
2021/06/03 03:34:25;;;;;;;;;;;;;;;14.17;55.52;100336.81;1772029;79;20445;-54
2021/06/03 03:37:00;;;;;;;;;;;;;;;14.20;55.47;100333.95;1801321;77;20453;-55
2021/06/03 03:39:34;;;;;;;;;;;;;;;14.20;55.54;100330.85;1812520;77;20401;-54
2021/06/03 03:42:19;;;;;;;;;;;;;;;14.15;55.71;100331.70;1804105;79;20194;-54
2021/06/03 03:44:54;;;;;;;;;;;;;;;14.20;55.71;100333.47;1792616;77;20448;-55
2021/06/03 03:47:28;;;;;;;;;;;;;;;14.19;55.76;100344.91;1787019;77;20161;-54
2021/06/03 03:50:06;;;;;;;;;;;;;;;14.18;55.72;100325.37;1770692;77;20790;-54
2021/06/03 03:52:51;;;;;;;;;;;;;;;14.13;55.61;100336.22;1741068;81;29968;-55
2021/06/03 03:55:27;;;;;;;;;;;;;;;14.16;55.76;100343.84;1787385;77;20118;-54
2021/06/03 03:58:03;;;;;;;;;;;;;;;14.16;55.54;100351.70;1782562;77;20370;-54
2021/06/03 04:00:49;;;;;;;;;;;;;;;14.13;55.71;100336.70;1739758;80;20291;-54
2021/06/03 04:03:43;;;;;;;;;;;;;;;14.16;55.97;100337.77;1795247;77;20541;-54
2021/06/03 04:06:18;;;;;;;;;;;;;;;14.16;56.05;100342.53;1818012;77;20162;-54
2021/06/03 04:08:53;;;;;;;;;;;;;;;14.16;56.06;100353.02;1825842;77;20254;-54
2021/06/03 04:11:38;;;;;;;;;;;;;;;14.12;55.85;100347.66;1762978;80;20465;-55
2021/06/03 04:14:13;;;;;;;;;;;;;;;14.16;55.83;100344.32;1795044;77;20120;-54
2021/06/03 04:16:48;;;;;;;;;;;;;;;14.15;56.04;100340.87;1805191;77;20309;-54
2021/06/03 04:19:23;;;;;;;;;;;;;;;14.14;55.98;100350.99;1773086;77;20137;-54
2021/06/03 04:21:58;;;;;;;;;;;;;;;14.14;56.16;100350.99;1800377;77;20227;-54
2021/06/03 04:24:33;;;;;;;;;;;;;;;14.15;56.13;100347.90;1796522;77;20409;-54
2021/06/03 04:27:18;;;;;;;;;;;;;;;14.11;55.96;100366.48;1744099;80;20138;-54
2021/06/03 04:29:52;;;;;;;;;;;;;;;14.15;55.95;100350.52;1817739;77;20159;-54
2021/06/03 04:32:27;;;;;;;;;;;;;;;14.16;55.80;100350.40;1834915;77;20267;-54
2021/06/03 04:35:14;;;;;;;;;;;;;;;14.11;55.92;100348.14;1772965;79;20193;-54
2021/06/03 04:37:49;;;;;;;;;;;;;;;14.17;55.97;100356.47;1792528;77;20392;-54
2021/06/03 04:40:23;;;;;;;;;;;;;;;14.16;55.95;100354.33;1802168;77;31567;-54
2021/06/03 04:43:09;;;;;;;;;;;;;;;14.13;55.91;100346.70;1747241;80;20414;-54
2021/06/03 04:45:43;;;;;;;;;;;;;;;14.20;55.83;100345.75;1778343;77;29070;-54
2021/06/03 04:48:17;;;;;;;;;;;;;;;14.21;55.75;100349.56;1803741;77;20272;-54
2021/06/03 04:51:03;;;;;;;;;;;;;;;14.19;55.89;100346.70;1771725;80;20278;-54
2021/06/03 04:53:38;;;;;;;;;;;;;;;14.26;56.03;100342.16;1781449;77;20122;-55
2021/06/03 04:56:12;;;;;;;;;;;;;;;14.27;55.74;100333.34;1821707;77;20232;-54
2021/06/03 04:59:06;;;;;;;;;;;;;;;14.30;55.41;100339.66;1848136;76;20476;-54
2021/06/03 05:01:53;;;;;;;;;;;;;;;14.29;55.49;100345.85;1792655;79;20177;-54
2021/06/03 05:04:27;;;;;;;;;;;;;;;14.37;55.69;100349.17;1784703;77;20165;-54
2021/06/03 05:07:02;;;;;;;;;;;;;;;14.39;55.50;100358.59;1784392;77;20136;-54
2021/06/03 05:09:48;;;;;;;;;;;;;;;14.37;55.39;100346.08;1753900;81;20200;-54
2021/06/03 05:12:22;;;;;;;;;;;;;;;14.46;55.49;100345.02;1849693;76;20262;-54
2021/06/03 05:14:56;;;;;;;;;;;;;;;14.48;55.45;100348.34;1802802;77;20226;-54
2021/06/03 05:17:42;;;;;;;;;;;;;;;14.47;55.48;100347.52;1738582;81;20173;-55
2021/06/03 05:20:16;;;;;;;;;;;;;;;14.55;55.20;100373.13;1790623;77;21219;-54
2021/06/03 05:22:51;;;;;;;;;;;;;;;14.58;55.16;100345.34;1798967;77;22137;-54
2021/06/03 05:25:36;;;;;;;;;;;;;;;14.58;55.23;100346.66;1790002;79;20157;-55
2021/06/03 05:28:11;;;;;;;;;;;;;;;14.67;55.13;100355.09;1803996;77;20885;-54
2021/06/03 05:30:45;;;;;;;;;;;;;;;14.70;55.05;100354.84;1800112;77;20532;-54
2021/06/03 05:33:32;;;;;;;;;;;;;;;14.70;54.98;100357.47;1764999;80;33809;-54
2021/06/03 05:36:07;;;;;;;;;;;;;;;14.78;54.80;100353.71;1795900;77;20222;-54
2021/06/03 05:38:41;;;;;;;;;;;;;;;14.83;54.54;100352.86;1795824;77;20152;-54
2021/06/03 05:41:15;;;;;;;;;;;;;;;14.86;54.45;100351.30;1848656;77;20255;-54
2021/06/03 05:44:02;;;;;;;;;;;;;;;14.86;54.27;100360.48;1765379;81;20149;-55
2021/06/03 05:46:37;;;;;;;;;;;;;;;14.96;54.23;100364.02;1800404;77;20147;-54
2021/06/03 05:49:12;;;;;;;;;;;;;;;15.00;54.33;100350.16;1779408;77;20256;-54
2021/06/03 05:52:02;;;;;;;;;;;;;;;15.00;54.45;100362.80;1757488;81;20185;-55
2021/06/03 05:54:33;;;;;;;;;;;;;;;15.08;54.73;100365.63;1768169;77;20411;-54
2021/06/03 05:57:08;;;;;;;;;;;;;;;15.13;54.70;100372.30;1834172;77;20490;-54
2021/06/03 05:59:54;;;;;;;;;;;;;;;15.13;54.94;100372.30;1766925;80;20325;-55
2021/06/03 06:02:43;;;;;;;;;;;;;;;15.23;54.77;100364.02;1804092;77;20254;-54
2021/06/03 06:07:59;;;;;;;;;;;;;;;15.33;54.57;100352.61;1795830;77;20186;-55
2021/06/03 06:10:46;;;;;;;;;;;;;;;15.34;54.53;100358.70;1742911;81;20415;-55
2021/06/03 06:13:22;;;;;;;;;;;;;;;15.43;54.41;100373.69;1821695;78;20128;-54
2021/06/03 06:15:56;;;;;;;;;;;;;;;15.49;54.17;100353.95;1800583;77;20532;-55
2021/06/03 06:18:42;;;;;;;;;;;;;;;15.49;54.13;100360.03;1744068;80;20181;-54
2021/06/03 06:21:18;;;;;;;;;;;;;;;15.57;53.81;100368.14;1793213;77;20245;-54
2021/06/03 06:23:53;;;;;;;;;;;;;;;15.61;53.79;100351.12;1797981;77;20439;-54
2021/06/03 06:26:28;;;;;;;;;;;;;;;15.66;53.84;100354.67;1834384;77;20146;-54
2021/06/03 06:29:15;;;;;;;;;;;;;;;15.66;54.01;100365.17;1763923;81;20299;-54
2021/06/03 06:31:50;;;;;;;;;;;;;;;15.75;54.36;100365.70;1788529;77;20159;-61
2021/06/03 06:34:23;;;;;;;;;;;;;;;15.79;54.27;100357.09;1826009;77;20141;-60
2021/06/03 06:37:08;;;;;;;;;;;;;;;15.81;50.00;100363.88;1743632;81;20200;-63
2021/06/03 06:39:43;;;;;;;;;;;;;;;15.99;49.36;100359.66;1804479;77;20113;-61
2021/06/03 06:42:17;;;;;;;;;;;;;;;16.10;49.84;100345.59;1796640;77;20220;-64
2021/06/03 06:44:54;;;;;;;;;;;;;;;16.21;50.10;100384.09;1824753;77;20410;-61
2021/06/03 06:47:29;;;;;;;;;;;;;;;16.25;50.06;100360.03;1808716;77;20264;-60
2021/06/03 06:50:05;;;;;;;;;;;;;;;16.29;50.79;100359.28;1819906;77;20321;-59
2021/06/03 06:52:50;;;;;;;;;;;;;;;16.26;49.13;100347.23;1779053;80;20178;-61
2021/06/03 06:55:25;;;;;;;;;;;;;;;16.32;49.34;100361.64;1823435;77;20343;-61
2021/06/03 06:58:00;;;;;;;;;;;;;;;16.33;48.70;100365.45;1820741;77;21012;-63
2021/06/03 07:00:34;;;;;;;;;;;;;;;16.35;49.42;100355.63;1802468;77;20266;-60
2021/06/03 07:03:09;;;;;;;;;;;;;;;16.42;50.33;100357.72;1822608;77;20269;-61
2021/06/03 07:05:45;;;;;;;;;;;;;;;16.44;51.29;100369.77;1828916;77;20226;-65
2021/06/03 07:08:20;;;;;;;;;;;;;;;16.48;50.65;100366.35;1804784;77;20278;-60
2021/06/03 07:10:55;;;;;;;;;;;;;;;16.53;50.54;100365.45;1827216;77;20544;-65
2021/06/03 07:13:29;;;;;;;;;;;;;;;16.59;47.58;100367.55;1817108;77;20249;-63
2021/06/03 07:16:05;;;;;;;;;;;;;;;16.65;46.22;100370.98;1826328;77;20267;-62
2021/06/03 07:18:51;;;;;;;;;;;;;;;16.66;46.25;100368.70;1795934;78;20174;-61
2021/06/03 07:21:24;;;;;;;;;;;;;;;16.78;45.57;100371.55;1809835;77;20534;-62
2021/06/03 07:23:58;;;;;;;;;;;;;;;16.86;44.99;100365.11;1801823;77;21048;-61
2021/06/03 07:26:33;;;;;;;;;;;;;;;16.92;45.41;100374.26;1819076;77;20497;-63
2021/06/03 07:29:07;;;;;;;;;;;;;;;16.92;45.17;100373.78;1813573;77;20268;-60
2021/06/03 07:31:42;;;;;;;;;;;;;;;16.88;44.07;100371.07;1817564;77;20937;-62
2021/06/03 07:34:16;;;;;;;;;;;;;;;16.87;45.50;100373.36;1794400;77;20194;-61
2021/06/03 07:37:10;;;;;;;;;;;;;;;16.88;45.56;100381.60;1819965;77;20280;-60
2021/06/03 07:39:45;;;;;;;;;;;;;;;16.87;44.82;100365.45;1817695;77;20154;-61
2021/06/03 07:42:18;;;;;;;;;;;;;;;16.85;45.56;100373.98;1815156;77;20251;-60
2021/06/03 07:44:52;;;;;;;;;;;;;;;16.89;45.35;100379.80;1807839;77;20343;-61
2021/06/03 07:47:28;;;;;;;;;;;;;;;16.95;44.47;100373.50;1814871;77;20146;-64
2021/06/03 07:50:01;;;;;;;;;;;;;;;17.01;45.40;100388.74;1809341;77;20167;-65
2021/06/03 07:52:47;;;;;;;;;;;;;;;17.07;45.00;100386.53;1789021;80;20293;-61
2021/06/03 07:55:21;;;;;;;;;;;;;;;17.20;43.99;100375.22;1806497;77;20256;-62
2021/06/03 07:57:58;;;;;;;;;;;;;;;17.26;44.99;100379.94;1775873;77;20501;-63
2021/06/03 08:00:43;;;;;;;;;;;;;;;17.27;44.67;100386.37;1735987;81;20159;-61
2021/06/03 08:03:18;;;;;;;;;;;;;;;17.41;44.89;100377.18;1826980;77;20498;-59
2021/06/03 08:05:52;;;;;;;;;;;;;;;17.51;44.16;100379.80;1813245;77;20304;-61
2021/06/03 08:08:38;;;;;;;;;;;;;;;17.50;44.00;100392.14;1780167;78;20288;-61
2021/06/03 08:11:12;;;;;;;;;;;;;;;17.55;43.01;100411.48;1830853;77;20109;-63
2021/06/03 08:13:45;;;;;;;;;;;;;;;17.52;42.71;100403.37;1813569;77;20268;-64
2021/06/03 08:16:31;;;;;;;;;;;;;;;17.48;42.13;100405.11;1780352;80;20207;-64
2021/06/03 08:19:05;;;;;;;;;;;;;;;17.51;43.35;100397.75;1804498;77;20159;-62
2021/06/03 08:21:40;;;;;;;;;;;;;;;17.49;42.93;100402.33;1810199;77;20114;-60
2021/06/03 08:24:16;;;;;;;;;;;;;;;17.48;43.40;100401.98;1807934;77;20145;-59
2021/06/03 08:26:52;;;;;;;;;;;;;;;17.50;42.56;100401.36;1814724;77;20228;-61
2021/06/03 08:29:38;;;;;;;;;;;;;;;17.48;43.03;100400.67;1765879;80;20281;-62
2021/06/03 08:32:13;;;;;;;;;;;;;;;17.56;43.95;100423.20;1808123;77;20225;-61
2021/06/03 08:34:48;;;;;;;;;;;;;;;17.55;42.52;100411.48;1816118;77;20146;-62
2021/06/03 08:37:22;;;;;;;;;;;;;;;17.55;42.23;100404.41;1805344;77;20498;-62
2021/06/03 08:39:57;;;;;;;;;;;;;;;17.56;41.96;100403.44;1776241;77;20523;-61
2021/06/03 08:42:44;;;;;;;;;;;;;;;17.56;42.38;100403.44;1739845;81;20241;-63
2021/06/03 08:45:20;;;;;;;;;;;;;;;17.62;43.52;100408.13;1808548;77;20150;-62
2021/06/03 08:47:55;;;;;;;;;;;;;;;17.65;43.26;100411.84;1813657;77;20921;-60
2021/06/03 08:50:32;;;;;;;;;;;;;;;17.69;44.38;100405.80;1824904;78;20454;-60
2021/06/03 08:53:19;;;;;;;;;;;;;;;17.67;42.42;100417.80;1785781;80;20190;-59
2021/06/03 08:56:20;;;;;;;;;;;;;;;17.78;43.57;100421.24;1826996;77;20423;-59
2021/06/03 08:58:57;;;;;;;;;;;;;;;17.80;44.94;100413.53;1804729;77;20268;-58
2021/06/03 09:01:43;;;;;;;;;;;;;;;17.80;45.31;100416.17;1765145;80;20179;-61
2021/06/03 09:04:18;;;;;;;;;;;;;;;17.91;45.89;100408.09;1825545;77;20111;-60
2021/06/03 09:06:53;;;;;;;;;;;;;;;17.97;42.69;100411.95;1816734;77;20205;-63
2021/06/03 09:09:38;;;;;;;;;;;;;;;17.98;43.00;100418.89;1787893;78;20266;-64
2021/06/03 09:12:14;;;;;;;;;;;;;;;18.09;42.07;100429.27;1812900;77;20388;-61
2021/06/03 09:14:52;;;;;;;;;;;;;;;18.12;42.84;100410.52;1812374;77;20242;-62
2021/06/03 09:17:47;;;;;;;;;;;;;;;18.12;42.27;100426.34;1782232;80;20273;-63
2021/06/03 09:20:25;;;;;;;;;;;;;;;18.21;41.55;100426.76;1803668;77;20234;-64
2021/06/03 09:22:58;;;;;;;;;;;;;;;18.24;42.29;100426.95;1789972;77;20250;-65
2021/06/03 09:25:39;;;;;;;;;;;;;;;18.22;41.50;100425.78;1818752;77;20153;-62
2021/06/03 09:28:34;;;;;;;;;;;;;;;18.24;41.66;100434.88;1787124;79;20172;-59
2021/06/03 09:31:30;;;;;;;;;;;;;;;18.29;43.38;100418.95;1801824;77;20432;-66
2021/06/03 09:34:18;;;;;;;;;;;;;;;18.41;41.56;100427.98;1789474;78;20105;-68
2021/06/03 09:36:54;;;;;;;;;;;;;;;18.52;43.23;100448.91;1816050;77;20147;-67
2021/06/03 09:39:41;;;;;;;;;;;;;;;18.51;43.03;100424.81;1757405;81;20153;-61
2021/06/03 09:42:18;;;;;;;;;;;;;;;18.51;42.84;100410.30;1815206;77;20157;-72
2021/06/03 09:44:53;;;;;;;;;;;;;;;18.48;42.21;100406.63;1806364;77;20272;-70
2021/06/03 09:47:36;;;;;;;;;;;;;;;18.45;42.09;100410.89;1820838;77;20173;-63
2021/06/03 09:50:10;;;;;;;;;;;;;;;18.47;42.02;100412.40;1812404;77;20478;-63
2021/06/03 09:52:57;;;;;;;;;;;;;;;18.49;42.92;100417.05;1771227;80;20175;-64
2021/06/03 09:55:30;;;;;;;;;;;;;;;18.57;42.35;100409.70;1816370;77;20254;-63
2021/06/03 09:58:02;;;;;;;;;;;;;;;18.58;43.88;100411.37;1805118;78;20332;-64
2021/06/03 10:00:35;;;;;;;;;;;;;;;18.58;44.42;100404.77;1803788;77;20224;-64
2021/06/03 10:03:10;;;;;;;;;;;;;;;18.60;42.14;100412.91;1813724;77;20416;-68
2021/06/03 10:05:44;;;;;;;;;;;;;;;18.67;43.42;100413.15;1826623;77;20250;-69
2021/06/03 10:08:19;;;;;;;;;;;;;;;18.69;43.25;100419.11;1810572;77;20170;-68
2021/06/03 10:10:52;;;;;;;;;;;;;;;18.71;44.12;100419.80;1829221;77;20467;-66
2021/06/03 10:13:26;;;;;;;;;;;;;;;18.72;43.87;100421.45;1769722;77;31833;-71
2021/06/03 10:16:32;;;;;;;;;;;;;;;18.71;42.75;100416.33;1756088;81;20171;-69
2021/06/03 10:19:20;;;;;;;;;;;;;;;18.78;42.40;100418.22;1815397;77;20821;-65
2021/06/03 10:22:21;;;;;;;;;;;;;;;18.83;42.30;100410.68;1808562;77;20292;-63
2021/06/03 10:25:09;;;;;;;;;;;;;;;18.89;41.75;100423.28;1789907;77;21487;-64
2021/06/03 10:27:46;;;;;;;;;;;;;;;18.93;40.58;100435.70;1809209;77;20211;-65
2021/06/03 10:30:37;;;;;;;;;;;;;;;18.92;40.66;100429.59;1783110;80;20210;-64
2021/06/03 10:33:18;;;;;;;;;;;;;;;18.96;40.76;100430.95;1830261;77;20160;-65
2021/06/03 10:35:55;;;;;;;;;;;;;;;18.91;41.41;100423.97;1797538;77;20455;-63
2021/06/03 10:38:41;;;;;;;;;;;;;;;18.84;41.14;100436.59;1775396;80;20151;-66
2021/06/03 10:41:16;;;;;;;;;;;;;;;18.86;42.32;100440.75;1815319;77;20157;-62
2021/06/03 10:43:51;;;;;;;;;;;;;;;18.84;42.66;100433.95;1827961;77;20477;-66
2021/06/03 10:46:27;;;;;;;;;;;;;;;18.79;42.86;100425.16;1791680;77;20171;-64
2021/06/03 10:49:02;;;;;;;;;;;;;;;18.72;41.73;100449.17;1815990;77;20145;-64
2021/06/03 10:51:39;;;;;;;;;;;;;;;18.65;42.54;100434.91;1817998;77;20518;-65
2021/06/03 10:54:45;;;;;;;;;;;;;;;18.56;42.84;100447.64;1782370;80;20288;-62
2021/06/03 10:57:23;;;;;;;;;;;;;;;18.59;43.34;100447.34;1810203;77;20268;-63
2021/06/03 10:59:57;;;;;;;;;;;;;;;18.61;43.48;100436.18;1813275;77;20262;-61
2021/06/03 11:02:51;;;;;;;;;;;;;;;18.61;42.43;100437.50;1766115;80;20183;-63
2021/06/03 11:05:35;;;;;;;;;;;;;;;18.76;42.03;100443.94;1812514;77;20750;-65
2021/06/03 11:08:41;;;;;;;;;;;;;;;18.86;42.42;100442.07;1840121;77;20218;-68
2021/06/03 11:11:23;;;;;;;;;;;;;;;18.91;43.27;100446.41;1811583;77;20149;-67
2021/06/03 11:14:01;;;;;;;;;;;;;;;18.87;44.50;100431.84;1823081;77;20343;-64
2021/06/03 11:16:52;;;;;;;;;;;;;;;18.80;44.40;100440.02;1796697;78;20192;-63
2021/06/03 11:19:27;;;;;;;;;;;;;;;18.85;44.77;100447.50;1784820;78;20262;-65
2021/06/03 11:22:05;;;;;;;;;;;;;;;18.88;44.94;100444.07;1811220;77;20315;-63
2021/06/03 11:24:39;;;;;;;;;;;;;;;18.97;44.27;100443.66;1818094;77;20461;-63
2021/06/03 11:27:15;;;;;;;;;;;;;;;19.12;43.83;100450.06;1815542;77;20229;-63
2021/06/03 11:29:54;;;;;;;;;;;;;;;19.28;43.67;100438.80;1832020;78;20163;-60
2021/06/03 11:32:30;;;;;;;;;;;;;;;19.41;42.62;100444.53;1800205;77;20258;-63
2021/06/03 11:35:17;;;;;;;;;;;;;;;19.44;42.47;100447.36;1788030;80;20410;-64
2021/06/03 11:37:51;;;;;;;;;;;;;;;19.52;42.12;100440.85;1824763;77;20259;-65
2021/06/03 11:40:27;;;;;;;;;;;;;;;19.51;42.16;100447.09;1772733;77;20116;-64
2021/06/03 11:43:12;;;;;;;;;;;;;;;19.46;42.19;100455.48;1733678;82;20126;-64
2021/06/03 11:45:48;;;;;;;;;;;;;;;19.47;42.44;100424.59;1824129;77;20795;-65
2021/06/03 11:48:23;;;;;;;;;;;;;;;19.46;42.59;100443.59;1797087;77;20276;-63
2021/06/03 11:51:00;;;;;;;;;;;;;;;19.49;43.10;100451.70;1813706;77;20380;-61
2021/06/03 11:53:48;;;;;;;;;;;;;;;19.51;43.58;100450.59;1769556;80;20159;-63
2021/06/03 11:56:27;;;;;;;;;;;;;;;19.67;44.19;100449.06;1828968;77;20275;-60
2021/06/03 11:58:59;;;;;;;;;;;;;;;19.75;43.99;100447.80;1821430;77;20291;-60
2021/06/03 12:01:33;;;;;;;;;;;;;;;19.81;42.60;100435.28;1811347;77;20264;-61
2021/06/03 12:04:10;;;;;;;;;;;;;;;19.80;41.43;100426.52;1815845;77;20248;-61
2021/06/03 12:06:45;;;;;;;;;;;;;;;19.72;41.29;100444.14;1821883;77;20264;-61
2021/06/03 12:09:21;;;;;;;;;;;;;;;19.63;41.71;100433.51;1815565;77;20157;-62
2021/06/03 12:11:57;;;;;;;;;;;;;;;19.54;42.71;100438.89;1811064;77;20799;-66
2021/06/03 12:14:44;;;;;;;;;;;;;;;19.40;43.27;100454.77;1778149;80;20179;-65
2021/06/03 12:17:17;;;;;;;;;;;;;;;19.35;44.45;100461.00;1822893;77;20158;-64
2021/06/03 12:22:27;;;;;;;;;;;;;;;19.27;44.40;100463.57;1773293;77;20240;-65
2021/06/03 12:25:13;;;;;;;;;;;;;;;19.26;44.38;100459.27;1733090;83;20265;-63
2021/06/03 12:27:48;;;;;;;;;;;;;;;19.36;44.29;100456.05;1810619;77;20260;-63
2021/06/03 12:30:29;;;;;;;;;;;;;;;19.43;44.43;100455.78;1795269;77;20310;-68
2021/06/03 12:33:29;;;;;;;;;;;;;;;19.46;44.04;100451.52;1785246;79;20440;-64
2021/06/03 12:36:09;;;;;;;;;;;;;;;19.53;43.63;100453.92;1816196;77;20982;-68
2021/06/03 12:38:49;;;;;;;;;;;;;;;19.57;44.02;100454.44;1812794;77;20146;-70
2021/06/03 12:41:34;;;;;;;;;;;;;;;19.66;43.90;100452.20;1816411;78;20244;-65
2021/06/03 12:44:13;;;;;;;;;;;;;;;19.73;43.14;100441.83;1825523;77;20162;-73
2021/06/03 12:46:53;;;;;;;;;;;;;;;19.76;43.06;100448.13;1816764;77;20226;-67
2021/06/03 12:49:28;;;;;;;;;;;;;;;19.82;42.46;100446.19;1756907;77;23144;-68
2021/06/03 12:52:18;;;;;;;;;;;;;;;19.87;42.17;100435.48;1731133;83;20466;-66
2021/06/03 12:54:54;;;;;;;;;;;;;;;20.06;40.85;100442.84;1817911;77;20268;-66
2021/06/03 12:57:27;;;;;;;;;;;;;;;20.17;40.19;100451.34;1801371;77;20151;-63
2021/06/03 13:00:00;;;;;;;;;;;;;;;20.18;40.69;100440.26;1806254;77;20403;-67
2021/06/03 13:02:48;;;;;;;;;;;;;;;20.16;40.96;100451.00;1785553;80;20438;-66
2021/06/03 13:05:21;;;;;;;;;;;;;;;20.22;40.99;100460.95;1811869;77;20264;-69
2021/06/03 13:07:56;;;;;;;;;;;;;;;20.17;39.77;100443.89;1814389;77;20130;-67
2021/06/03 13:10:30;;;;;;;;;;;;;;;20.14;37.72;100472.81;1821238;77;20256;-71
2021/06/03 13:13:09;;;;;;;;;;;;;;;20.14;38.96;100456.94;1807977;77;20267;-73
2021/06/03 13:15:54;;;;;;;;;;;;;;;20.14;39.87;100464.88;1781150;80;20188;-70
2021/06/03 13:18:30;;;;;;;;;;;;;;;20.17;38.78;100448.69;1807190;77;20829;-75
2021/06/03 13:21:03;;;;;;;;;;;;;;;20.18;38.71;100459.61;1815015;77;20159;-71
2021/06/03 13:23:50;;;;;;;;;;;;;;;20.19;38.94;100462.59;1775054;80;20183;-64
2021/06/03 13:26:24;;;;;;;;;;;;;;;20.26;37.26;100453.03;1799624;77;20299;-65
2021/06/03 13:29:00;;;;;;;;;;;;;;;20.25;36.47;100454.52;1821482;77;20255;-66
2021/06/03 13:31:46;;;;;;;;;;;;;;;20.16;37.12;100461.58;1791570;80;20143;-65
2021/06/03 13:34:39;;;;;;;;;;;;;;;20.15;37.42;100465.22;1793125;77;20153;-65
2021/06/03 13:37:16;;;;;;;;;;;;;;;20.06;39.37;100466.16;1807072;77;20225;-64
2021/06/03 13:40:07;;;;;;;;;;;;;;;19.96;38.79;100472.05;1758912;80;20511;-64
2021/06/03 13:42:43;;;;;;;;;;;;;;;19.93;38.60;100454.67;1818462;77;20404;-63